METAR Data
IDs: Format: Raw Decoded Include TAF

Data at: 0536 UTC 24 Sep 2018

KJOT 240515Z AUTO 10005KT 10SM CLR 17/13 A3012 RMK AO2 T01650130
KJOT 240455Z AUTO 11006KT 10SM CLR 17/13 A3011 RMK AO2 T01660132
KJOT 240435Z AUTO 10007KT 10SM CLR 17/14 A3012 RMK AO2 T01670137
KJOT 240415Z AUTO 08005KT 10SM CLR 16/14 A3012 RMK AO2 T01640142
KJOT 240355Z AUTO 07005KT 10SM CLR 16/14 A3011 RMK AO2 T01640144
KJOT 240335Z AUTO 06006KT 10SM CLR 17/15 A3011 RMK AO2 T01650145
KJOT 240315Z AUTO 06006KT 10SM CLR 17/15 A3011 RMK AO2 T01670145
KJOT 240255Z AUTO 06008KT 10SM CLR 17/14 A3011 RMK AO2 T01690142
KJOT 240235Z AUTO 06008KT 10SM CLR 17/14 A3011 RMK AO2 T01690140
KJOT 240215Z AUTO 07007KT 10SM CLR 17/14 A3011 RMK AO2 T01680138
KJOT 240155Z AUTO 06008KT 10SM CLR 17/14 A3011 RMK AO2 T01710136
KJOT 240135Z AUTO 06007KT 10SM CLR 17/13 A3011 RMK AO2 T01730134
KJOT 240115Z AUTO 06007KT 10SM CLR 18/13 A3011 RMK AO2 T01750131
KJOT 240055Z AUTO 05006KT 10SM CLR 18/13 A3011 RMK AO2 T01770130
KJOT 240035Z AUTO 06007KT 10SM CLR 18/13 A3010 RMK AO2 T01830130
KJOT 240015Z AUTO 07008KT 10SM CLR 19/13 A3010 RMK AO2 T01900130
KJOT 232355Z AUTO 07008KT 10SM CLR 20/13 A3010 RMK AO2 T02000130 10247 20200
KJOT 232335Z AUTO 07009KT 10SM CLR 21/13 A3010 RMK AO2 T02090130
KJOT 232315Z AUTO 06009KT 10SM CLR 22/13 A3009 RMK AO2 T02160128
KJOT 232255Z AUTO 06009KT 10SM CLR 22/13 A3009 RMK AO2 T02240127
KJOT 232235Z AUTO 06008KT 10SM CLR 23/12 A3009 RMK AO2 T02310124
KJOT 232215Z AUTO 12007KT 10SM CLR 24/11 A3008 RMK AO2 T02410108
KJOT 232155Z AUTO 10005KT 10SM CLR 24/11 A3008 RMK AO2 T02420106
KJOT 232135Z AUTO 09005KT 10SM CLR 24/10 A3008 RMK AO2 T02430104
KJOT 232115Z AUTO 08005KT 10SM CLR 25/11 A3009 RMK AO2 T02450106
KJOT 232055Z AUTO 10005KT 10SM CLR 24/11 A3009 RMK AO2 T02430105
KJOT 232035Z AUTO 10006KT 10SM CLR 24/11 A3009 RMK AO2 T02410107
KJOT 232015Z AUTO 12005KT 10SM CLR 24/11 A3009 RMK AO2 T02420109
KJOT 231955Z AUTO 10009KT 10SM CLR 24/11 A3010 RMK AO2 T02370106
KJOT 231935Z AUTO 10007KT 10SM CLR 24/11 A3011 RMK AO2 T02350108
KJOT 231915Z AUTO 12006KT 10SM CLR 23/10 A3011 RMK AO2 T02300103
KJOT 231855Z AUTO 07007KT 10SM CLR 23/11 A3012 RMK AO2 T02310108
KJOT 231835Z AUTO 11005KT 10SM CLR 23/12 A3013 RMK AO2 T02310115
KJOT 231815Z AUTO 10005KT 10SM CLR 23/11 A3014 RMK AO2 T02270110
KJOT 231755Z AUTO 08006KT 10SM CLR 22/11 A3015 RMK AO2 T02240114 10224 20077
KJOT 231735Z AUTO 10006KT 10SM CLR 22/11 A3016 RMK AO2 T02150114
KJOT 231715Z AUTO 14007KT 10SM CLR 22/12 A3017 RMK AO2 T02150115
KJOT 231655Z AUTO 06003KT 10SM CLR 21/11 A3017 RMK AO2 T02110113
KJOT 231635Z AUTO 10003KT 10SM CLR 21/11 A3018 RMK AO2 T02060112
KJOT 231615Z AUTO 08004KT 10SM CLR 20/12 A3019 RMK AO2 T02010117
KJOT 231555Z AUTO 10006KT 10SM CLR 20/12 A3019 RMK AO2 T01980117
KJOT 231535Z AUTO 12005KT 10SM CLR 19/12 A3019 RMK AO2 T01890119
KJOT 231515Z AUTO 14005KT 10SM CLR 18/12 A3020 RMK AO2 T01820118
KJOT 231455Z AUTO 14003KT 10SM CLR 18/12 A3020 RMK AO2 T01810118
KJOT 231435Z AUTO 00000KT 10SM CLR 17/12 A3020 RMK AO2 T01700120
KJOT 231415Z AUTO 11004KT 10SM CLR 16/12 A3019 RMK AO2 T01620121
KJOT 231355Z AUTO 13004KT 10SM CLR 15/12 A3020 RMK AO2 T01490116
KJOT 231335Z AUTO 15003KT 10SM CLR 14/12 A3019 RMK AO2 T01410116
KJOT 231315Z AUTO 00000KT 10SM CLR 13/11 A3018 RMK AO2 T01300113
KJOT 231255Z AUTO 00000KT 10SM CLR 11/11 A3019 RMK AO2 T01120107
KJOT 231235Z AUTO 00000KT 10SM CLR 10/09 A3018 RMK AO2 T00960094
KJOT 231215Z AUTO 00000KT 10SM CLR 09/09 A3018 RMK AO2 T00920091
KJOT 231155Z AUTO 00000KT 10SM CLR 08/08 A3017 RMK AO2 T00770076 10120 20064
KJOT 231135Z AUTO 00000KT 7SM CLR 08/08 A3017 RMK AO2 T00750075
KJOT 231115Z AUTO 00000KT 5SM BR CLR 08/08 A3016 RMK AO2 T00830083
KJOT 231055Z AUTO 00000KT 10SM CLR 09/08 A3016 RMK AO2 T00850084
KJOT 231035Z AUTO 00000KT 3/4SM BR VV005 08/08 A3016 RMK AO2 T00780078
KJOT 231015Z AUTO 00000KT 7SM CLR 08/08 A3017 RMK AO2 T00810081
KJOT 230955Z AUTO 00000KT 7SM CLR 08/08 A3016 RMK AO2 T00770076
KJOT 230935Z AUTO 00000KT 7SM CLR 08/08 A3016 RMK AO2 T00820081
KJOT 230915Z AUTO 00000KT 10SM CLR 08/08 A3017 RMK AO2 T00770075
KJOT 230850Z AUTO 00000KT 10SM CLR 08/08 A3016 RMK AO2 T00830081
KJOT 230835Z AUTO 00000KT 10SM CLR 08/07 A3016 RMK AO2 T00800073
KJOT 230815Z AUTO 00000KT 10SM CLR 09/08 A3016 RMK AO2 T00870080
KJOT 230755Z AUTO 00000KT 10SM CLR 10/09 A3017 RMK AO2 T00970087
KJOT 230735Z AUTO 00000KT 10SM CLR 11/10 A3017 RMK AO2 T01120097
KJOT 230715Z AUTO 00000KT 10SM CLR 10/09 A3018 RMK AO2 T01040087
KJOT 230655Z AUTO 00000KT 10SM CLR 10/09 A3018 RMK AO2 T01030089
KJOT 230635Z AUTO 00000KT 10SM CLR 11/09 A3018 RMK AO2 T01060089
KJOT 230615Z AUTO 00000KT 10SM CLR 12/10 A3018 RMK AO2 T01180096
KJOT 230555Z AUTO 00000KT 10SM CLR 11/10 A3018 RMK AO2 T01130095 10165 20108 402010108
KJOT 230535Z AUTO 00000KT 10SM CLR 11/10 A3018 RMK AO2 T01140096
KJOT 230515Z AUTO 00000KT 10SM CLR 12/09 A3019 RMK AO2 T01180094
KJOT 230455Z AUTO 00000KT 10SM CLR 12/10 A3019 RMK AO2 T01210100
KJOT 230435Z AUTO 10003KT 10SM CLR 12/10 A3019 RMK AO2 T01170095
KJOT 230415Z AUTO 10003KT 10SM CLR 12/10 A3019 RMK AO2 T01190097
KJOT 230355Z AUTO 10004KT 10SM CLR 12/10 A3020 RMK AO2 T01240100
KJOT 230335Z AUTO 00000KT 10SM CLR 12/10 A3020 RMK AO2 T01180097
KJOT 230315Z AUTO 00000KT 10SM CLR 12/09 A3020 RMK AO2 T01220094
KJOT 230255Z AUTO 00000KT 10SM CLR 13/10 A3021 RMK AO2 T01310096
KJOT 230235Z AUTO 07004KT 10SM CLR 13/10 A3021 RMK AO2 T01340098
KJOT 230215Z AUTO 07004KT 10SM CLR 14/10 A3021 RMK AO2 T01350098
KJOT 230155Z AUTO 06005KT 10SM CLR 14/10 A3021 RMK AO2 T01390098
KJOT 230135Z AUTO 07005KT 10SM CLR 14/10 A3020 RMK AO2 T01410097
KJOT 230115Z AUTO 05004KT 10SM CLR 15/10 A3020 RMK AO2 T01460096
KJOT 230055Z AUTO 07004KT 10SM CLR 15/10 A3019 RMK AO2 T01480096
KJOT 230035Z AUTO 05004KT 10SM CLR 15/09 A3019 RMK AO2 T01540091
KJOT 230015Z AUTO 04005KT 10SM CLR 16/09 A3019 RMK AO2 T01600090
KJOT 222355Z AUTO 04005KT 10SM CLR 17/09 A3019 RMK AO2 T01650085 10201 20165
KJOT 222335Z AUTO 03005KT 10SM CLR 17/08 A3019 RMK AO2 T01740081
KJOT 222315Z AUTO 02008KT 10SM CLR 18/08 A3019 RMK AO2 T01810079
KJOT 222255Z AUTO 03006KT 10SM CLR 19/08 A3020 RMK AO2 T01870076
KJOT 222235Z AUTO 09004KT 10SM CLR 20/08 A3020 RMK AO2 T01950078
KJOT 222215Z AUTO 04006KT 10SM CLR 20/07 A3021 RMK AO2 T01950072
KJOT 222155Z AUTO 04005KT 10SM CLR 20/07 A3021 RMK AO2 T01950070
KJOT 222135Z AUTO 09005KT 10SM CLR 20/07 A3021 RMK AO2 T01990069
KJOT 222115Z AUTO 12003KT 10SM CLR 20/07 A3021 RMK AO2 T02000066
KJOT 222055Z AUTO 11005KT 10SM CLR 20/06 A3021 RMK AO2 T01960064
KJOT 222035Z AUTO 06004KT 10SM CLR 20/07 A3022 RMK AO2 T01960065
KJOT 222015Z AUTO 06007KT 10SM CLR 20/07 A3023 RMK AO2 T01970065
KJOT 221955Z AUTO 04005KT 10SM CLR 19/06 A3023 RMK AO2 T01930063
KJOT 221935Z AUTO 06003KT 10SM CLR 20/07 A3024 RMK AO2 T01970069
KJOT 221915Z AUTO 05008KT 360V070 10SM CLR 20/07 A3024 RMK AO2 T01950072
KJOT 221855Z AUTO 05007KT 10SM CLR 19/08 A3025 RMK AO2 T01920075
KJOT 221835Z AUTO 08008KT 10SM CLR 19/08 A3027 RMK AO2 T01930079
KJOT 221815Z AUTO 04007KT 10SM CLR 19/07 A3028 RMK AO2 T01870074
KJOT 221755Z AUTO 08005KT 10SM CLR 19/08 A3028 RMK AO2 T01870075 10193 20118